createdAt,value
2022-09-21T00:00:45.399Z,4.35
2022-09-21T00:10:46.857Z,4.70
2022-09-21T00:20:48.245Z,4.32
2022-09-21T00:30:51.922Z,4.70
2022-09-21T00:40:54.372Z,4.38
2022-09-21T00:50:56.203Z,4.63
2022-09-21T01:00:57.542Z,4.78
2022-09-21T01:10:58.916Z,5.00
2022-09-21T01:21:00.469Z,4.60
2022-09-21T01:31:06.251Z,4.25
2022-09-21T01:41:08.090Z,4.82
2022-09-21T01:51:09.796Z,5.20
2022-09-21T02:01:11.174Z,5.47
2022-09-21T02:11:13.450Z,5.38
2022-09-21T02:21:15.346Z,4.60
2022-09-21T02:31:17.732Z,5.20
2022-09-21T02:41:19.836Z,5.18
2022-09-21T02:51:21.154Z,5.20
2022-09-21T03:01:22.458Z,6.07
2022-09-21T03:11:23.756Z,6.85
2022-09-21T03:21:25.027Z,7.68
2022-09-21T03:31:26.347Z,7.20
2022-09-21T03:41:27.737Z,8.02
2022-09-21T03:51:29.923Z,8.57
2022-09-21T04:01:31.508Z,6.43
2022-09-21T04:11:33.381Z,6.18
2022-09-21T04:21:34.723Z,7.05
2022-09-21T04:31:36.062Z,9.30
2022-09-21T04:41:37.394Z,8.52
2022-09-21T04:51:39.111Z,8.98
2022-09-21T05:01:40.549Z,8.48
2022-09-21T05:11:41.876Z,9.35
2022-09-21T05:21:43.169Z,8.43
2022-09-21T05:31:44.630Z,9.50
2022-09-21T05:41:46.002Z,10.57
2022-09-21T05:51:47.315Z,9.35
2022-09-21T06:01:48.638Z,9.57
2022-09-21T06:11:49.960Z,9.90
2022-09-21T06:21:51.262Z,9.80
2022-09-21T06:31:52.591Z,10.63
2022-09-21T06:41:53.956Z,9.68
2022-09-21T06:51:55.268Z,8.98
2022-09-21T07:01:58.492Z,9.80
2022-09-21T07:12:00.223Z,9.73
2022-09-21T07:22:01.546Z,9.02
2022-09-21T07:32:02.919Z,9.73
2022-09-21T07:42:04.260Z,8.68
2022-09-21T07:52:09.393Z,9.52
2022-09-21T08:02:12.062Z,8.95
2022-09-21T08:12:13.374Z,9.32
2022-09-21T08:22:14.673Z,9.30
2022-09-21T08:32:39.441Z,9.00
2022-09-21T08:42:37.276Z,8.52
2022-09-21T08:52:38.554Z,7.10
2022-09-21T09:02:39.883Z,6.75
2022-09-21T09:12:41.280Z,5.90
2022-09-21T09:22:42.620Z,5.10
2022-09-21T09:32:44.085Z,3.58
2022-09-21T09:42:45.391Z,4.22
2022-09-21T09:52:46.698Z,3.80
2022-09-21T10:02:49.408Z,3.97
2022-09-21T10:12:50.727Z,4.60
2022-09-21T10:22:51.941Z,3.10
2022-09-21T10:32:53.271Z,3.03
2022-09-21T10:42:54.786Z,2.38
2022-09-21T10:52:56.914Z,2.58
2022-09-21T11:02:58.455Z,2.47
2022-09-21T11:12:59.940Z,1.80
2022-09-21T11:23:01.366Z,1.00
2022-09-21T11:33:03.192Z,1.05
2022-09-21T11:43:04.607Z,1.20
2022-09-21T11:53:05.970Z,0.90
2022-09-21T12:03:07.396Z,1.27
2022-09-21T12:13:08.845Z,1.20
2022-09-21T12:23:10.108Z,0.70
2022-09-21T12:33:11.812Z,0.57
2022-09-21T12:43:13.020Z,0.77
2022-09-21T12:53:14.337Z,1.00
2022-09-21T13:03:15.634Z,0.63
2022-09-21T13:13:18.150Z,0.52
2022-09-21T13:23:19.433Z,0.63
2022-09-21T13:33:20.648Z,0.60
2022-09-21T13:43:21.954Z,0.50
2022-09-21T13:53:23.488Z,0.68
2022-09-21T14:03:24.784Z,0.55
2022-09-21T14:13:26.147Z,0.50
2022-09-21T14:23:27.970Z,0.50
2022-09-21T14:33:29.341Z,0.40
2022-09-21T14:43:30.631Z,0.65
2022-09-21T14:53:34.499Z,0.32
2022-09-21T15:03:39.345Z,0.47
2022-09-21T15:13:41.829Z,0.50
2022-09-21T15:23:44.105Z,1.00
2022-09-21T15:33:46.737Z,0.60
2022-09-21T15:43:48.068Z,0.47
2022-09-21T15:53:49.363Z,0.65
2022-09-21T16:03:55.149Z,0.40
2022-09-21T16:14:17.093Z,0.60
2022-09-21T17:06:02.607Z,0.60
2022-09-21T17:16:03.981Z,1.27
2022-09-21T17:26:05.343Z,2.83
2022-09-21T17:36:06.614Z,1.92
2022-09-21T17:46:08.406Z,1.42
2022-09-21T17:56:09.784Z,1.15
2022-09-21T18:06:11.132Z,3.13
2022-09-21T18:16:12.444Z,2.60
2022-09-21T18:26:15.571Z,1.10
2022-09-21T18:36:16.912Z,1.75
2022-09-21T18:46:18.176Z,1.90
2022-09-21T18:56:20.506Z,2.53
2022-09-21T19:06:22.258Z,1.42
2022-09-21T19:16:23.622Z,1.98
2022-09-21T19:26:24.978Z,1.67
2022-09-21T19:36:26.199Z,2.13
2022-09-21T19:46:27.762Z,3.20
2022-09-21T19:56:50.987Z,1.80
2022-09-21T20:16:57.185Z,1.40
2022-09-21T20:26:58.712Z,2.67
2022-09-21T20:37:00.032Z,4.55
2022-09-21T20:47:01.356Z,1.67
2022-09-21T20:57:02.687Z,1.63
2022-09-21T21:07:04.387Z,2.00
2022-09-21T21:17:06.122Z,1.95
2022-09-21T21:27:07.453Z,1.70
2022-09-21T21:37:09.242Z,2.10
2022-09-21T21:47:35.095Z,2.03
2022-09-21T21:57:33.324Z,2.20
2022-09-21T22:07:34.680Z,2.05
2022-09-21T22:17:35.979Z,2.33
2022-09-21T22:27:37.184Z,2.13
2022-09-21T22:37:38.590Z,2.30
2022-09-21T22:47:41.604Z,1.90
2022-09-21T22:57:42.950Z,1.90
2022-09-21T23:07:44.264Z,2.05
2022-09-21T23:17:45.563Z,1.90
2022-09-21T23:27:46.908Z,2.30
2022-09-21T23:37:48.224Z,2.20
2022-09-21T23:47:49.521Z,2.40
2022-09-21T23:57:51.236Z,2.40
